createdAt,value
2023-01-15T00:02:08.050Z,1.08
2023-01-15T00:04:35.104Z,1.13
2023-01-15T00:07:01.830Z,3.00
2023-01-15T00:09:28.591Z,0.63
2023-01-15T00:11:55.380Z,0.93
2023-01-15T00:14:22.334Z,0.88
2023-01-15T00:16:52.580Z,1.08
2023-01-15T00:19:19.425Z,1.75
2023-01-15T00:21:46.228Z,1.17
2023-01-15T00:24:31.774Z,0.90
2023-01-15T00:27:17.314Z,0.65
2023-01-15T00:29:44.349Z,1.38
2023-01-15T00:32:11.175Z,1.48
2023-01-15T00:34:38.038Z,0.43
2023-01-15T00:37:05.178Z,0.38
2023-01-15T00:39:34.688Z,1.10
2023-01-15T00:42:01.923Z,1.05
2023-01-15T00:44:28.848Z,1.15
2023-01-15T00:46:55.545Z,3.33
2023-01-15T00:49:22.360Z,2.25
2023-01-15T00:51:50.170Z,4.55
2023-01-15T00:54:17.999Z,1.80
2023-01-15T00:56:45.051Z,0.73
2023-01-15T00:59:12.158Z,1.83
2023-01-15T01:01:39.486Z,0.90
2023-01-15T01:04:06.745Z,0.40
2023-01-15T01:06:33.511Z,0.75
2023-01-15T01:09:00.244Z,1.20
2023-01-15T01:11:27.114Z,1.27
2023-01-15T01:13:55.580Z,0.73
2023-01-15T01:16:37.896Z,1.17
2023-01-15T01:19:12.818Z,0.30
2023-01-15T01:21:43.749Z,0.77
2023-01-15T01:24:17.700Z,0.40
2023-01-15T01:26:47.149Z,1.98
2023-01-15T01:29:17.130Z,0.73
2023-01-15T01:31:44.248Z,0.40
2023-01-15T01:34:13.143Z,0.60
2023-01-15T01:36:42.945Z,0.45
2023-01-15T01:39:16.247Z,0.50
2023-01-15T01:41:43.845Z,0.32
2023-01-15T01:44:35.278Z,0.30
2023-01-15T01:47:06.633Z,0.75
2023-01-15T01:49:35.240Z,0.30
2023-01-15T01:52:08.347Z,0.43
2023-01-15T01:54:37.868Z,1.85
2023-01-15T01:57:07.442Z,0.20
2023-01-15T01:59:34.673Z,0.30
2023-01-15T02:02:01.688Z,1.23
2023-01-15T02:04:30.943Z,0.20
2023-01-15T02:07:00.925Z,0.40
2023-01-15T02:09:27.900Z,0.20
2023-01-15T02:12:01.876Z,0.10
2023-01-15T02:14:30.897Z,0.20
2023-01-15T02:17:21.454Z,1.17
2023-01-15T02:20:12.856Z,0.30
2023-01-15T02:23:21.800Z,3.10
2023-01-15T02:26:13.798Z,1.98
2023-01-15T02:28:45.561Z,0.10
2023-01-15T02:31:31.427Z,0.25
2023-01-15T02:34:14.638Z,0.57
2023-01-15T02:36:47.586Z,0.38
2023-01-15T02:39:17.192Z,0.20
2023-01-15T02:41:49.153Z,0.30
2023-01-15T02:44:20.221Z,0.50
2023-01-15T02:46:50.340Z,0.40
2023-01-15T02:49:20.830Z,0.30
2023-01-15T02:52:15.164Z,0.40
2023-01-15T02:54:52.732Z,2.50
2023-01-15T02:57:21.773Z,0.22
2023-01-15T02:59:50.554Z,0.22
2023-01-15T03:02:33.826Z,0.30
2023-01-15T03:05:20.745Z,1.08
2023-01-15T03:08:03.407Z,0.35
2023-01-15T03:10:57.369Z,0.20
2023-01-15T03:13:32.244Z,0.22
2023-01-15T03:16:40.620Z,0.65
2023-01-15T03:19:14.458Z,0.17
2023-01-15T03:22:05.734Z,0.45
2023-01-15T03:24:34.731Z,0.30
2023-01-15T03:27:02.476Z,0.43
2023-01-15T03:29:36.448Z,0.20
2023-01-15T03:32:04.390Z,0.28
2023-01-15T03:34:41.028Z,0.10
2023-01-15T03:37:08.089Z,0.30
2023-01-15T03:39:35.452Z,0.20
2023-01-15T03:42:19.867Z,0.10
2023-01-15T03:45:32.289Z,1.15
2023-01-15T03:48:26.787Z,0.20
2023-01-15T03:51:02.753Z,0.25
2023-01-15T03:53:32.757Z,0.30
2023-01-15T03:56:16.063Z,1.38
2023-01-15T03:59:01.210Z,0.20
2023-01-15T04:01:36.080Z,2.75
2023-01-15T04:04:03.600Z,0.10
2023-01-15T04:06:35.438Z,1.75
2023-01-15T04:09:06.901Z,0.10
2023-01-15T04:11:33.813Z,1.08
2023-01-15T04:14:00.707Z,0.30
2023-01-15T04:16:32.868Z,0.20
2023-01-15T04:19:00.462Z,0.20
2023-01-15T04:21:27.434Z,0.15
2023-01-15T04:23:54.388Z,0.20
2023-01-15T04:26:21.392Z,0.10
2023-01-15T04:28:48.421Z,0.20
2023-01-15T04:31:15.951Z,0.10
2023-01-15T04:33:42.851Z,0.13
2023-01-15T04:36:10.152Z,0.10
2023-01-15T04:38:38.663Z,0.20
2023-01-15T04:41:25.415Z,0.10
2023-01-15T04:44:07.759Z,0.10
2023-01-15T04:46:39.335Z,0.20
2023-01-15T04:49:10.048Z,1.40
2023-01-15T04:51:37.567Z,0.10
2023-01-15T04:54:05.942Z,0.40
2023-01-15T04:56:38.555Z,0.35
2023-01-15T04:59:05.428Z,0.10
2023-01-15T05:01:32.792Z,1.30
2023-01-15T05:03:59.687Z,0.13
2023-01-15T05:06:26.807Z,0.20
2023-01-15T05:08:53.864Z,0.17
2023-01-15T05:11:20.813Z,0.10
2023-01-15T05:13:47.691Z,0.20
2023-01-15T05:16:22.145Z,0.15
2023-01-15T05:18:49.098Z,0.10
2023-01-15T05:21:18.804Z,1.70
2023-01-15T05:23:45.734Z,0.10
2023-01-15T05:26:12.745Z,0.10
2023-01-15T05:28:39.991Z,0.55
2023-01-15T05:31:17.125Z,2.97
2023-01-15T05:33:47.099Z,0.20
2023-01-15T05:36:17.299Z,0.15
2023-01-15T05:38:44.260Z,0.10
2023-01-15T05:41:33.990Z,0.13
2023-01-15T05:44:06.999Z,0.20
2023-01-15T05:49:03.435Z,0.15
2023-01-15T05:51:30.992Z,0.10
2023-01-15T05:53:58.673Z,0.22
2023-01-15T05:56:26.022Z,0.20
2023-01-15T05:58:54.033Z,0.10
2023-01-15T06:01:21.972Z,0.10
2023-01-15T06:03:49.393Z,0.17
2023-01-15T06:06:18.685Z,0.25
2023-01-15T06:08:46.594Z,0.20
2023-01-15T06:11:14.035Z,0.20
2023-01-15T06:13:41.365Z,0.60
2023-01-15T06:16:11.031Z,0.10
2023-01-15T06:18:40.864Z,0.10
2023-01-15T06:21:11.055Z,0.13
2023-01-15T06:23:38.866Z,0.63
2023-01-15T06:26:18.811Z,0.93
2023-01-15T06:28:47.103Z,0.20
2023-01-15T06:31:17.997Z,0.30
2023-01-15T06:33:45.270Z,0.20
2023-01-15T06:36:16.156Z,0.20
2023-01-15T06:38:43.934Z,0.10
2023-01-15T06:41:36.457Z,0.20
2023-01-15T06:44:22.430Z,0.30
2023-01-15T06:47:11.201Z,0.20
2023-01-15T06:49:38.387Z,0.20
2023-01-15T06:52:06.649Z,0.30
2023-01-15T06:54:35.042Z,0.35
2023-01-15T06:57:02.134Z,0.17
2023-01-15T06:59:29.411Z,0.10
2023-01-15T07:01:56.290Z,0.30
2023-01-15T07:04:23.236Z,0.20
2023-01-15T07:06:50.067Z,0.30
2023-01-15T07:09:17.117Z,0.20
2023-01-15T07:11:49.904Z,0.25
2023-01-15T07:14:25.042Z,0.28
2023-01-15T07:16:52.926Z,0.20
2023-01-15T07:19:20.500Z,0.30
2023-01-15T07:21:48.047Z,0.73
2023-01-15T07:24:17.625Z,0.50
2023-01-15T07:26:46.000Z,0.40
2023-01-15T07:29:13.876Z,0.70
2023-01-15T07:31:41.219Z,0.17
2023-01-15T07:34:08.813Z,1.95
2023-01-15T07:36:36.897Z,3.22
2023-01-15T07:39:09.772Z,2.35
2023-01-15T07:41:55.036Z,1.65
2023-01-15T07:44:43.853Z,0.40
2023-01-15T07:47:41.729Z,0.57
2023-01-15T07:50:14.979Z,0.85
2023-01-15T07:52:42.217Z,1.20
2023-01-15T07:55:12.818Z,1.00
2023-01-15T07:57:44.202Z,0.90
2023-01-15T08:00:19.249Z,1.33
2023-01-15T08:02:49.906Z,1.55
2023-01-15T08:05:20.226Z,0.82
2023-01-15T08:08:07.559Z,1.17
2023-01-15T08:10:56.186Z,1.45
2023-01-15T08:13:44.695Z,0.73
2023-01-15T08:20:23.065Z,0.20
2023-01-15T08:22:49.869Z,0.20
2023-01-15T08:25:20.509Z,0.30
2023-01-15T08:27:47.720Z,0.17
2023-01-15T08:30:21.017Z,0.10
2023-01-15T08:32:47.931Z,0.20
2023-01-15T08:35:14.973Z,0.25
2023-01-15T08:37:42.418Z,0.20
2023-01-15T08:40:12.041Z,0.43
2023-01-15T08:42:39.253Z,3.80
2023-01-15T08:45:07.047Z,0.80
2023-01-15T08:47:33.815Z,2.65
2023-01-15T08:50:00.560Z,0.52
2023-01-15T08:52:27.318Z,0.30
2023-01-15T08:54:54.081Z,0.10
2023-01-15T08:57:20.810Z,0.25
2023-01-15T08:59:48.100Z,0.38
2023-01-15T09:02:15.563Z,0.30
2023-01-15T09:04:42.504Z,0.20
2023-01-15T09:07:09.448Z,0.22
2023-01-15T09:09:36.251Z,0.30
2023-01-15T09:12:03.016Z,0.60
2023-01-15T09:14:59.547Z,0.82
2023-01-15T09:17:16.663Z,0.28
2023-01-15T09:19:43.425Z,0.28
2023-01-15T09:22:10.148Z,0.57
2023-01-15T09:24:37.209Z,0.20
2023-01-15T09:27:03.944Z,0.10
2023-01-15T09:29:30.812Z,0.30
2023-01-15T09:31:57.559Z,0.30
2023-01-15T09:34:24.339Z,0.40
2023-01-15T09:36:51.392Z,0.80
2023-01-15T09:39:18.143Z,1.10
2023-01-15T09:42:09.372Z,0.43
2023-01-15T09:44:51.829Z,0.55
2023-01-15T09:47:31.344Z,0.20
2023-01-15T09:50:22.913Z,0.38
2023-01-15T09:52:49.546Z,0.55
2023-01-15T09:55:22.706Z,0.22
2023-01-15T09:57:56.886Z,0.43
2023-01-15T10:00:26.822Z,0.55
2023-01-15T10:03:00.285Z,0.45
2023-01-15T10:06:12.342Z,0.32
2023-01-15T10:08:46.324Z,0.73
2023-01-15T10:11:15.558Z,0.52
2023-01-15T10:13:47.542Z,0.70
2023-01-15T10:16:23.584Z,0.30
2023-01-15T10:18:50.700Z,0.47
2023-01-15T10:21:35.960Z,0.22
2023-01-15T10:24:40.321Z,0.43
2023-01-15T10:27:36.698Z,0.20
2023-01-15T10:30:21.139Z,0.20
2023-01-15T10:33:02.360Z,0.35
2023-01-15T10:35:37.057Z,0.30
2023-01-15T10:38:25.123Z,0.20
2023-01-15T10:41:18.999Z,0.30
2023-01-15T10:44:19.630Z,0.20
2023-01-15T10:46:57.032Z,0.20
2023-01-15T10:49:29.573Z,0.38
2023-01-15T10:52:04.334Z,0.65
2023-01-15T10:54:54.608Z,0.57
2023-01-15T10:57:42.307Z,0.30
2023-01-15T11:00:11.592Z,0.30
2023-01-15T11:02:45.911Z,1.58
2023-01-15T11:05:17.465Z,1.95
2023-01-15T11:08:10.352Z,1.02
2023-01-15T11:10:35.668Z,0.30
2023-01-15T11:13:39.461Z,0.43
2023-01-15T11:16:35.378Z,0.40
2023-01-15T11:19:23.863Z,0.30
2023-01-15T11:21:52.789Z,0.15
2023-01-15T11:24:20.927Z,0.28
2023-01-15T11:26:52.536Z,0.68
2023-01-15T11:29:34.202Z,2.20
2023-01-15T11:32:01.033Z,0.20
2023-01-15T11:34:27.834Z,0.20
2023-01-15T11:37:07.253Z,0.43
2023-01-15T11:39:34.045Z,2.28
2023-01-15T11:42:25.615Z,0.57
2023-01-15T11:45:16.499Z,0.43
2023-01-15T11:48:13.424Z,0.30
2023-01-15T11:50:55.823Z,1.08
2023-01-15T11:53:27.628Z,0.38
2023-01-15T11:56:06.423Z,0.20
2023-01-15T11:58:50.628Z,0.20
2023-01-15T12:01:34.997Z,0.80
2023-01-15T12:04:08.413Z,1.05
2023-01-15T12:06:39.900Z,0.20
2023-01-15T12:09:34.318Z,1.30
2023-01-15T12:12:44.720Z,0.30
2023-01-15T12:16:06.004Z,3.35
2023-01-15T12:18:50.415Z,0.65
2023-01-15T12:21:29.412Z,0.30
2023-01-15T12:24:30.657Z,1.13
2023-01-15T12:27:35.430Z,1.80
2023-01-15T12:30:40.324Z,1.63
2023-01-15T12:33:28.183Z,0.80
2023-01-15T12:36:04.145Z,0.60
2023-01-15T12:38:51.223Z,0.40
2023-01-15T12:41:53.959Z,0.30
2023-01-15T12:44:57.165Z,0.20
2023-01-15T12:47:49.424Z,0.30
2023-01-15T12:50:37.972Z,1.17
2023-01-15T12:53:41.675Z,1.20
2023-01-15T12:56:27.301Z,0.55
2023-01-15T12:59:10.695Z,0.73
2023-01-15T13:02:09.800Z,0.98
2023-01-15T13:04:52.402Z,1.00
2023-01-15T13:07:28.605Z,0.70
2023-01-15T13:10:26.170Z,0.73
2023-01-15T13:12:56.201Z,0.30
2023-01-15T13:15:31.303Z,0.30
2023-01-15T13:18:23.447Z,0.57
2023-01-15T13:20:52.597Z,0.40
2023-01-15T13:23:56.240Z,0.73
2023-01-15T13:29:36.764Z,2.17
2023-01-15T13:32:22.925Z,1.38
2023-01-15T13:34:58.883Z,1.73
2023-01-15T13:37:31.698Z,1.20
2023-01-15T13:40:24.117Z,2.97
2023-01-15T13:42:52.456Z,3.53
2023-01-15T13:45:19.255Z,0.70
2023-01-15T13:47:52.934Z,0.75
2023-01-15T13:50:32.004Z,0.40
2023-01-15T13:53:21.003Z,0.40
2023-01-15T13:56:06.139Z,0.40
2023-01-15T13:58:39.815Z,10.55
2023-01-15T14:01:20.736Z,6.95
2023-01-15T14:04:15.673Z,8.98
2023-01-15T14:06:52.913Z,3.17
2023-01-15T14:09:25.416Z,8.45
2023-01-15T14:11:55.557Z,7.00
2023-01-15T14:14:57.124Z,12.20
2023-01-15T14:18:12.475Z,34.53
2023-01-15T14:21:11.809Z,22.38
2023-01-15T14:24:02.818Z,3.72
2023-01-15T14:26:53.325Z,4.75
2023-01-15T14:29:45.519Z,2.13
2023-01-15T14:32:38.083Z,4.65
2023-01-15T14:35:20.335Z,3.15
2023-01-15T14:37:59.490Z,7.47
2023-01-15T14:40:32.792Z,2.00
2023-01-15T14:43:09.577Z,4.95
2023-01-15T14:45:42.217Z,4.32
2023-01-15T14:48:38.592Z,3.72
2023-01-15T14:51:28.743Z,2.70
2023-01-15T14:54:04.309Z,1.35
2023-01-15T14:56:36.473Z,15.38
2023-01-15T14:59:36.573Z,2.25
2023-01-15T15:02:21.080Z,1.60
2023-01-15T15:04:54.164Z,23.05
2023-01-15T15:10:06.087Z,0.95
2023-01-15T15:13:15.272Z,2.28
2023-01-15T15:16:23.285Z,1.38
2023-01-15T15:19:35.072Z,2.60
2023-01-15T15:22:07.001Z,1.08
2023-01-15T15:24:37.079Z,0.55
2023-01-15T15:27:17.406Z,1.38
2023-01-15T15:29:44.416Z,0.43
2023-01-15T15:32:23.734Z,1.17
2023-01-15T15:34:53.312Z,0.40
2023-01-15T15:37:26.041Z,1.05
2023-01-15T15:40:17.088Z,2.17
2023-01-15T15:43:24.374Z,16.52
2023-01-15T15:46:15.177Z,11.73
2023-01-15T15:48:51.226Z,6.40
2023-01-15T15:51:48.626Z,7.60
2023-01-15T15:54:29.835Z,1.30
2023-01-15T15:57:15.957Z,0.70
2023-01-15T15:59:51.951Z,3.55
2023-01-15T16:02:28.691Z,1.35
2023-01-15T16:04:59.172Z,0.57
2023-01-15T16:07:34.347Z,0.75
2023-01-15T16:10:13.171Z,1.55
2023-01-15T16:12:47.181Z,3.05
2023-01-15T16:15:19.705Z,4.47
2023-01-15T16:17:47.179Z,3.88
2023-01-15T16:20:17.750Z,7.93
2023-01-15T16:23:05.679Z,4.35
2023-01-15T16:25:37.139Z,2.78
2023-01-15T16:28:04.998Z,10.80
2023-01-15T16:30:33.096Z,9.68
2023-01-15T16:33:08.110Z,3.20
2023-01-15T16:35:37.390Z,9.57
2023-01-15T16:38:07.111Z,6.55
2023-01-15T16:40:40.115Z,9.10
2023-01-15T16:43:18.424Z,16.08
2023-01-15T16:46:07.783Z,15.23
2023-01-15T16:48:46.315Z,5.15
2023-01-15T16:51:31.648Z,3.80
2023-01-15T16:54:02.218Z,2.58
2023-01-15T16:56:35.208Z,2.10
2023-01-15T16:59:02.285Z,1.70
2023-01-15T17:01:38.402Z,6.72
2023-01-15T17:04:20.785Z,2.92
2023-01-15T17:07:06.661Z,2.25
2023-01-15T17:09:36.874Z,2.70
2023-01-15T17:12:22.923Z,6.22
2023-01-15T17:14:49.821Z,9.52
2023-01-15T17:17:27.822Z,5.82
2023-01-15T17:19:57.173Z,6.20
2023-01-15T17:22:30.860Z,3.40
2023-01-15T17:25:00.444Z,2.53
2023-01-15T17:27:29.847Z,1.70
2023-01-15T17:29:56.804Z,1.65
2023-01-15T17:32:36.344Z,1.40
2023-01-15T17:35:03.337Z,1.63
2023-01-15T17:37:30.177Z,1.10
2023-01-15T17:39:56.956Z,1.35
2023-01-15T17:42:23.745Z,1.83
2023-01-15T17:44:50.622Z,0.98
2023-01-15T17:47:17.392Z,2.70
2023-01-15T17:49:44.175Z,4.70
2023-01-15T17:52:19.084Z,9.40
2023-01-15T17:55:07.526Z,10.57
2023-01-15T17:57:52.616Z,7.32
2023-01-15T18:00:38.245Z,9.95
2023-01-15T18:03:24.003Z,4.65
2023-01-15T18:05:51.846Z,6.20
2023-01-15T18:08:19.030Z,5.13
2023-01-15T18:10:45.907Z,3.95
2023-01-15T18:13:12.932Z,5.80
2023-01-15T18:15:39.707Z,5.63
2023-01-15T18:18:06.564Z,4.72
2023-01-15T18:20:33.991Z,7.72
2023-01-15T18:23:00.891Z,5.40
2023-01-15T18:25:27.879Z,9.18
2023-01-15T18:27:54.741Z,3.75
2023-01-15T18:30:21.675Z,4.43
2023-01-15T18:32:48.621Z,6.50
2023-01-15T18:35:16.072Z,2.95
2023-01-15T18:37:43.076Z,4.28
2023-01-15T18:40:11.683Z,2.10
2023-01-15T18:42:58.435Z,1.05
2023-01-15T18:45:44.406Z,1.00
2023-01-15T18:48:11.196Z,8.05
2023-01-15T18:50:38.132Z,10.52
2023-01-15T18:53:04.958Z,1.85
2023-01-15T18:55:31.786Z,6.65
2023-01-15T18:57:58.671Z,10.98
2023-01-15T19:00:25.767Z,6.85
2023-01-15T19:02:52.670Z,22.20
2023-01-15T19:05:20.133Z,9.07
2023-01-15T19:07:47.402Z,3.97
2023-01-15T19:10:16.642Z,5.72
2023-01-15T19:12:44.849Z,2.55
2023-01-15T19:15:36.124Z,2.88
2023-01-15T19:18:22.758Z,3.22
2023-01-15T19:20:49.849Z,2.00
2023-01-15T19:23:16.736Z,10.10
2023-01-15T19:25:45.716Z,10.25
2023-01-15T19:28:17.694Z,4.10
2023-01-15T19:31:10.422Z,6.10
2023-01-15T19:33:37.377Z,17.55
2023-01-15T19:36:04.759Z,5.63
2023-01-15T19:38:33.627Z,10.35
2023-01-15T19:41:20.397Z,13.55
2023-01-15T19:44:05.510Z,8.13
2023-01-15T19:46:58.056Z,13.40
2023-01-15T19:49:43.680Z,7.03
2023-01-15T19:52:29.364Z,7.45
2023-01-15T19:55:00.012Z,10.48
2023-01-15T19:57:29.713Z,11.25
2023-01-15T19:59:56.608Z,21.77
2023-01-15T20:02:23.414Z,7.30
2023-01-15T20:04:50.690Z,18.85
2023-01-15T20:07:17.653Z,8.07
2023-01-15T20:09:45.000Z,4.78
2023-01-15T20:12:31.394Z,9.45
2023-01-15T20:14:59.108Z,33.33
2023-01-15T20:17:29.407Z,25.92
2023-01-15T20:19:56.701Z,11.35
2023-01-15T20:22:27.577Z,16.60
2023-01-15T20:24:54.505Z,7.22
2023-01-15T20:27:21.645Z,2.72
2023-01-15T20:30:17.914Z,5.78
2023-01-15T20:32:47.630Z,4.13
2023-01-15T20:35:19.726Z,6.60
2023-01-15T20:37:48.129Z,3.42
2023-01-15T20:40:18.518Z,8.10
2023-01-15T20:43:04.163Z,5.30
2023-01-15T20:45:31.237Z,6.15
2023-01-15T20:48:13.386Z,4.68
2023-01-15T20:50:43.900Z,5.97
2023-01-15T20:53:11.234Z,7.25
2023-01-15T20:55:53.858Z,6.13
2023-01-15T20:58:23.062Z,11.07
2023-01-15T21:00:50.885Z,6.82
2023-01-15T21:03:18.174Z,7.93
2023-01-15T21:05:45.476Z,7.03
2023-01-15T21:08:12.558Z,4.30
2023-01-15T21:10:40.801Z,7.32
2023-01-15T21:13:07.860Z,7.93
2023-01-15T21:15:34.709Z,4.45
2023-01-15T21:18:01.506Z,5.15
2023-01-15T21:20:28.439Z,1.90
2023-01-15T21:22:57.325Z,2.10
2023-01-15T21:25:24.326Z,2.53
2023-01-15T21:27:52.011Z,2.28
2023-01-15T21:30:18.993Z,6.63
2023-01-15T21:32:46.535Z,5.65
2023-01-15T21:35:13.339Z,5.25
2023-01-15T21:37:40.117Z,5.70
2023-01-15T21:40:08.058Z,4.25
2023-01-15T21:42:53.258Z,10.55
2023-01-15T21:45:20.209Z,5.68
2023-01-15T21:47:47.068Z,5.63
2023-01-15T21:50:13.944Z,4.78
2023-01-15T21:52:40.696Z,3.42
2023-01-15T21:55:07.972Z,4.70
2023-01-15T21:57:34.836Z,3.30
2023-01-15T22:00:01.656Z,2.88
2023-01-15T22:02:29.988Z,2.88
2023-01-15T22:04:56.863Z,4.45
2023-01-15T22:07:23.759Z,1.98
2023-01-15T22:09:51.103Z,3.65
2023-01-15T22:12:18.197Z,3.03
2023-01-15T22:14:45.110Z,6.07
2023-01-15T22:17:11.876Z,4.28
2023-01-15T22:19:38.823Z,4.13
2023-01-15T22:22:10.971Z,2.58
2023-01-15T22:24:40.507Z,4.03
2023-01-15T22:27:09.288Z,5.38
2023-01-15T22:29:40.924Z,7.32
2023-01-15T22:32:10.718Z,3.55
2023-01-15T22:34:37.619Z,5.15
2023-01-15T22:37:04.800Z,9.38
2023-01-15T22:39:31.863Z,3.20
2023-01-15T22:42:17.121Z,4.13
2023-01-15T22:44:45.231Z,3.20
2023-01-15T22:47:12.371Z,2.65
2023-01-15T22:49:39.214Z,2.45
2023-01-15T22:52:06.399Z,3.13
2023-01-15T22:54:33.341Z,8.23
2023-01-15T22:57:00.186Z,3.22
2023-01-15T22:59:27.152Z,7.43
2023-01-15T23:01:54.230Z,5.13
2023-01-15T23:04:24.340Z,7.82
2023-01-15T23:06:52.854Z,3.03
2023-01-15T23:09:23.033Z,3.05
2023-01-15T23:11:51.652Z,1.63
2023-01-15T23:14:21.488Z,1.45
2023-01-15T23:16:49.237Z,5.70
2023-01-15T23:19:17.644Z,3.33
2023-01-15T23:21:44.520Z,2.63
2023-01-15T23:24:11.966Z,4.05
2023-01-15T23:26:39.219Z,4.35
2023-01-15T23:29:06.460Z,1.90
2023-01-15T23:31:33.651Z,1.77
2023-01-15T23:34:00.671Z,1.95
2023-01-15T23:36:27.640Z,3.00
2023-01-15T23:38:54.792Z,2.03
2023-01-15T23:41:43.749Z,1.95
2023-01-15T23:44:38.235Z,1.58
2023-01-15T23:47:07.588Z,1.42
2023-01-15T23:49:35.012Z,3.67
2023-01-15T23:52:02.345Z,1.33
2023-01-15T23:54:30.943Z,1.02
2023-01-15T23:56:59.732Z,1.95
2023-01-15T23:59:26.711Z,1.55
